sensor_id;sensor_type;location;lat;lon;timestamp;P1;durP1;ratioP1;P2;durP2;ratioP2
38615;SDS011;24370;51.986;4.666;2023-03-12T00:02:24;19.13;;;6.17;;
38615;SDS011;24370;51.986;4.666;2023-03-12T00:04:49;10.67;;;5.47;;
38615;SDS011;24370;51.986;4.666;2023-03-12T00:07:15;14.30;;;5.77;;
38615;SDS011;24370;51.986;4.666;2023-03-12T00:09:40;11.87;;;5.60;;
38615;SDS011;24370;51.986;4.666;2023-03-12T00:12:05;17.17;;;5.57;;
38615;SDS011;24370;51.986;4.666;2023-03-12T00:14:31;11.93;;;5.63;;
38615;SDS011;24370;51.986;4.666;2023-03-12T00:16:57;9.90;;;5.20;;
38615;SDS011;24370;51.986;4.666;2023-03-12T00:19:22;20.53;;;7.20;;
38615;SDS011;24370;51.986;4.666;2023-03-12T00:21:47;9.60;;;5.60;;
38615;SDS011;24370;51.986;4.666;2023-03-12T00:24:13;13.93;;;5.53;;
38615;SDS011;24370;51.986;4.666;2023-03-12T00:26:38;14.30;;;5.33;;
38615;SDS011;24370;51.986;4.666;2023-03-12T00:29:03;12.10;;;6.30;;
38615;SDS011;24370;51.986;4.666;2023-03-12T00:31:30;11.10;;;5.20;;
38615;SDS011;24370;51.986;4.666;2023-03-12T00:33:57;15.37;;;6.10;;
38615;SDS011;24370;51.986;4.666;2023-03-12T00:36:24;11.03;;;5.20;;
38615;SDS011;24370;51.986;4.666;2023-03-12T00:38:51;8.67;;;5.30;;
38615;SDS011;24370;51.986;4.666;2023-03-12T00:41:18;9.10;;;5.07;;
38615;SDS011;24370;51.986;4.666;2023-03-12T00:43:44;9.70;;;5.57;;
38615;SDS011;24370;51.986;4.666;2023-03-12T00:46:10;11.33;;;5.07;;
38615;SDS011;24370;51.986;4.666;2023-03-12T00:48:36;12.23;;;5.47;;
38615;SDS011;24370;51.986;4.666;2023-03-12T00:51:01;9.30;;;4.60;;
38615;SDS011;24370;51.986;4.666;2023-03-12T00:53:27;10.33;;;4.90;;
38615;SDS011;24370;51.986;4.666;2023-03-12T00:55:52;10.97;;;5.17;;
38615;SDS011;24370;51.986;4.666;2023-03-12T00:58:17;11.97;;;5.53;;
38615;SDS011;24370;51.986;4.666;2023-03-12T01:00:43;10.07;;;5.03;;
38615;SDS011;24370;51.986;4.666;2023-03-12T01:03:08;10.67;;;4.80;;
38615;SDS011;24370;51.986;4.666;2023-03-12T01:05:34;8.87;;;4.67;;
38615;SDS011;24370;51.986;4.666;2023-03-12T01:08:02;12.33;;;4.50;;
38615;SDS011;24370;51.986;4.666;2023-03-12T01:10:28;9.60;;;4.33;;
38615;SDS011;24370;51.986;4.666;2023-03-12T01:12:55;12.57;;;5.07;;
38615;SDS011;24370;51.986;4.666;2023-03-12T01:15:20;8.93;;;4.40;;
38615;SDS011;24370;51.986;4.666;2023-03-12T01:17:45;10.53;;;5.00;;
38615;SDS011;24370;51.986;4.666;2023-03-12T01:20:11;17.97;;;5.10;;
38615;SDS011;24370;51.986;4.666;2023-03-12T01:22:36;8.60;;;4.43;;
38615;SDS011;24370;51.986;4.666;2023-03-12T01:25:02;13.47;;;4.50;;
38615;SDS011;24370;51.986;4.666;2023-03-12T01:27:28;7.57;;;4.67;;
38615;SDS011;24370;51.986;4.666;2023-03-12T01:29:53;7.70;;;4.83;;
38615;SDS011;24370;51.986;4.666;2023-03-12T01:32:19;11.20;;;4.73;;
38615;SDS011;24370;51.986;4.666;2023-03-12T01:34:45;12.10;;;5.03;;
38615;SDS011;24370;51.986;4.666;2023-03-12T01:37:11;9.97;;;4.80;;
38615;SDS011;24370;51.986;4.666;2023-03-12T01:39:36;9.93;;;4.73;;
38615;SDS011;24370;51.986;4.666;2023-03-12T01:42:01;7.93;;;4.33;;
38615;SDS011;24370;51.986;4.666;2023-03-12T01:44:27;9.93;;;4.97;;
38615;SDS011;24370;51.986;4.666;2023-03-12T01:46:53;9.77;;;4.53;;
38615;SDS011;24370;51.986;4.666;2023-03-12T01:52:09;11.00;;;4.93;;
38615;SDS011;24370;51.986;4.666;2023-03-12T01:54:40;10.60;;;4.73;;
38615;SDS011;24370;51.986;4.666;2023-03-12T01:57:20;11.57;;;5.00;;
38615;SDS011;24370;51.986;4.666;2023-03-12T02:00:10;8.27;;;5.37;;
38615;SDS011;24370;51.986;4.666;2023-03-12T02:02:38;9.80;;;5.27;;
38615;SDS011;24370;51.986;4.666;2023-03-12T02:07:55;13.83;;;5.23;;
38615;SDS011;24370;51.986;4.666;2023-03-12T02:10:21;10.37;;;4.80;;
38615;SDS011;24370;51.986;4.666;2023-03-12T02:12:47;9.73;;;5.07;;
38615;SDS011;24370;51.986;4.666;2023-03-12T02:15:13;9.27;;;4.90;;
38615;SDS011;24370;51.986;4.666;2023-03-12T02:17:38;5.97;;;3.83;;
38615;SDS011;24370;51.986;4.666;2023-03-12T02:23:00;9.37;;;4.00;;
38615;SDS011;24370;51.986;4.666;2023-03-12T02:28:02;9.70;;;3.87;;
38615;SDS011;24370;51.986;4.666;2023-03-12T02:30:30;9.37;;;3.47;;
38615;SDS011;24370;51.986;4.666;2023-03-12T02:32:58;8.67;;;3.43;;
38615;SDS011;24370;51.986;4.666;2023-03-12T02:35:26;8.17;;;3.10;;
38615;SDS011;24370;51.986;4.666;2023-03-12T02:37:52;7.03;;;3.40;;
38615;SDS011;24370;51.986;4.666;2023-03-12T02:40:24;5.90;;;3.63;;
38615;SDS011;24370;51.986;4.666;2023-03-12T02:42:50;7.70;;;3.70;;
38615;SDS011;24370;51.986;4.666;2023-03-12T02:45:16;6.80;;;2.93;;
38615;SDS011;24370;51.986;4.666;2023-03-12T02:47:42;7.33;;;3.23;;
38615;SDS011;24370;51.986;4.666;2023-03-12T02:50:08;6.17;;;3.10;;
38615;SDS011;24370;51.986;4.666;2023-03-12T02:52:34;11.67;;;3.33;;
38615;SDS011;24370;51.986;4.666;2023-03-12T02:55:01;6.73;;;3.27;;
38615;SDS011;24370;51.986;4.666;2023-03-12T02:57:26;9.67;;;3.17;;
38615;SDS011;24370;51.986;4.666;2023-03-12T02:59:52;7.67;;;3.33;;
38615;SDS011;24370;51.986;4.666;2023-03-12T03:02:17;9.47;;;3.20;;
38615;SDS011;24370;51.986;4.666;2023-03-12T03:04:42;12.80;;;3.30;;
38615;SDS011;24370;51.986;4.666;2023-03-12T03:07:08;7.93;;;3.27;;
38615;SDS011;24370;51.986;4.666;2023-03-12T03:09:33;5.00;;;3.30;;
38615;SDS011;24370;51.986;4.666;2023-03-12T03:11:59;10.03;;;3.50;;
38615;SDS011;24370;51.986;4.666;2023-03-12T03:14:24;6.23;;;3.17;;
38615;SDS011;24370;51.986;4.666;2023-03-12T03:16:50;5.37;;;2.80;;
38615;SDS011;24370;51.986;4.666;2023-03-12T03:19:15;7.37;;;3.03;;
38615;SDS011;24370;51.986;4.666;2023-03-12T03:21:41;14.40;;;3.47;;
38615;SDS011;24370;51.986;4.666;2023-03-12T03:24:07;10.63;;;3.10;;
38615;SDS011;24370;51.986;4.666;2023-03-12T03:26:33;7.93;;;3.47;;
38615;SDS011;24370;51.986;4.666;2023-03-12T03:28:58;5.90;;;3.50;;
38615;SDS011;24370;51.986;4.666;2023-03-12T03:31:24;13.30;;;3.77;;
38615;SDS011;24370;51.986;4.666;2023-03-12T03:33:49;13.73;;;3.90;;
38615;SDS011;24370;51.986;4.666;2023-03-12T03:36:15;11.70;;;3.30;;
38615;SDS011;24370;51.986;4.666;2023-03-12T03:38:41;14.10;;;3.60;;
38615;SDS011;24370;51.986;4.666;2023-03-12T03:41:13;9.98;;;3.30;;
38615;SDS011;24370;51.986;4.666;2023-03-12T03:43:39;7.53;;;3.87;;
38615;SDS011;24370;51.986;4.666;2023-03-12T03:46:04;10.23;;;3.80;;
38615;SDS011;24370;51.986;4.666;2023-03-12T03:48:30;8.33;;;3.10;;
38615;SDS011;24370;51.986;4.666;2023-03-12T03:50:59;10.63;;;3.67;;
38615;SDS011;24370;51.986;4.666;2023-03-12T03:53:25;14.20;;;3.93;;
38615;SDS011;24370;51.986;4.666;2023-03-12T03:55:51;8.47;;;3.73;;
38615;SDS011;24370;51.986;4.666;2023-03-12T03:58:16;7.63;;;4.20;;
38615;SDS011;24370;51.986;4.666;2023-03-12T04:00:43;10.27;;;5.00;;
38615;SDS011;24370;51.986;4.666;2023-03-12T04:03:09;11.20;;;3.93;;
38615;SDS011;24370;51.986;4.666;2023-03-12T04:05:34;9.80;;;4.40;;
38615;SDS011;24370;51.986;4.666;2023-03-12T04:08:00;12.40;;;4.40;;
38615;SDS011;24370;51.986;4.666;2023-03-12T04:10:27;11.23;;;3.83;;
38615;SDS011;24370;51.986;4.666;2023-03-12T04:12:53;16.57;;;4.77;;
38615;SDS011;24370;51.986;4.666;2023-03-12T04:15:19;8.80;;;4.07;;
38615;SDS011;24370;51.986;4.666;2023-03-12T04:17:44;11.27;;;3.87;;
38615;SDS011;24370;51.986;4.666;2023-03-12T04:20:10;5.60;;;3.87;;
38615;SDS011;24370;51.986;4.666;2023-03-12T04:22:36;9.43;;;4.40;;
38615;SDS011;24370;51.986;4.666;2023-03-12T04:25:01;11.33;;;3.77;;
38615;SDS011;24370;51.986;4.666;2023-03-12T04:27:28;9.03;;;4.10;;
38615;SDS011;24370;51.986;4.666;2023-03-12T04:29:53;9.77;;;4.33;;
38615;SDS011;24370;51.986;4.666;2023-03-12T04:32:18;8.97;;;5.00;;
38615;SDS011;24370;51.986;4.666;2023-03-12T04:34:44;13.47;;;5.00;;
38615;SDS011;24370;51.986;4.666;2023-03-12T04:37:09;12.20;;;4.87;;
38615;SDS011;24370;51.986;4.666;2023-03-12T04:39:38;14.73;;;5.20;;
38615;SDS011;24370;51.986;4.666;2023-03-12T04:42:04;9.20;;;5.57;;
38615;SDS011;24370;51.986;4.666;2023-03-12T04:44:29;15.67;;;6.27;;
38615;SDS011;24370;51.986;4.666;2023-03-12T04:46:55;11.70;;;6.00;;
38615;SDS011;24370;51.986;4.666;2023-03-12T04:49:20;15.27;;;7.60;;
38615;SDS011;24370;51.986;4.666;2023-03-12T04:51:46;19.67;;;6.50;;
38615;SDS011;24370;51.986;4.666;2023-03-12T04:54:11;14.13;;;6.67;;
38615;SDS011;24370;51.986;4.666;2023-03-12T04:56:36;16.97;;;6.43;;
38615;SDS011;24370;51.986;4.666;2023-03-12T04:59:02;18.27;;;6.93;;
38615;SDS011;24370;51.986;4.666;2023-03-12T05:01:29;15.90;;;6.67;;
38615;SDS011;24370;51.986;4.666;2023-03-12T05:03:57;15.43;;;6.60;;
38615;SDS011;24370;51.986;4.666;2023-03-12T05:06:22;16.83;;;7.60;;
38615;SDS011;24370;51.986;4.666;2023-03-12T05:08:48;17.00;;;7.93;;
38615;SDS011;24370;51.986;4.666;2023-03-12T05:11:14;17.90;;;7.37;;
38615;SDS011;24370;51.986;4.666;2023-03-12T05:13:40;20.77;;;7.90;;
38615;SDS011;24370;51.986;4.666;2023-03-12T05:16:05;18.73;;;7.17;;
38615;SDS011;24370;51.986;4.666;2023-03-12T05:18:32;21.97;;;8.93;;
38615;SDS011;24370;51.986;4.666;2023-03-12T05:21:01;17.83;;;8.37;;
38615;SDS011;24370;51.986;4.666;2023-03-12T05:23:28;13.33;;;8.27;;
38615;SDS011;24370;51.986;4.666;2023-03-12T05:25:54;14.13;;;7.83;;
38615;SDS011;24370;51.986;4.666;2023-03-12T05:28:20;19.33;;;8.10;;
38615;SDS011;24370;51.986;4.666;2023-03-12T05:30:51;14.90;;;8.30;;
38615;SDS011;24370;51.986;4.666;2023-03-12T05:33:17;19.03;;;8.13;;
38615;SDS011;24370;51.986;4.666;2023-03-12T05:35:43;20.30;;;8.53;;
38615;SDS011;24370;51.986;4.666;2023-03-12T05:38:08;16.97;;;8.83;;
38615;SDS011;24370;51.986;4.666;2023-03-12T05:40:33;17.20;;;9.17;;
38615;SDS011;24370;51.986;4.666;2023-03-12T05:42:59;20.03;;;8.60;;
38615;SDS011;24370;51.986;4.666;2023-03-12T05:45:24;16.43;;;9.33;;
38615;SDS011;24370;51.986;4.666;2023-03-12T05:47:50;20.43;;;9.50;;
38615;SDS011;24370;51.986;4.666;2023-03-12T05:50:15;15.17;;;8.97;;
38615;SDS011;24370;51.986;4.666;2023-03-12T05:52:40;19.60;;;9.90;;
38615;SDS011;24370;51.986;4.666;2023-03-12T05:55:06;17.30;;;9.50;;
38615;SDS011;24370;51.986;4.666;2023-03-12T05:57:32;18.33;;;9.20;;
38615;SDS011;24370;51.986;4.666;2023-03-12T05:59:57;20.27;;;9.07;;
38615;SDS011;24370;51.986;4.666;2023-03-12T06:02:22;17.83;;;9.87;;
38615;SDS011;24370;51.986;4.666;2023-03-12T06:04:48;23.47;;;11.90;;
38615;SDS011;24370;51.986;4.666;2023-03-12T06:07:13;23.10;;;10.90;;
38615;SDS011;24370;51.986;4.666;2023-03-12T06:09:38;20.17;;;10.03;;
38615;SDS011;24370;51.986;4.666;2023-03-12T06:12:04;23.13;;;10.03;;
38615;SDS011;24370;51.986;4.666;2023-03-12T06:14:29;21.33;;;10.83;;
38615;SDS011;24370;51.986;4.666;2023-03-12T06:16:55;21.37;;;10.80;;
38615;SDS011;24370;51.986;4.666;2023-03-12T06:19:20;17.00;;;10.90;;
38615;SDS011;24370;51.986;4.666;2023-03-12T06:21:46;25.37;;;11.30;;
38615;SDS011;24370;51.986;4.666;2023-03-12T06:24:11;24.90;;;11.53;;
38615;SDS011;24370;51.986;4.666;2023-03-12T06:26:36;27.20;;;12.80;;
38615;SDS011;24370;51.986;4.666;2023-03-12T06:29:02;26.30;;;12.70;;
38615;SDS011;24370;51.986;4.666;2023-03-12T06:31:27;23.10;;;13.17;;
38615;SDS011;24370;51.986;4.666;2023-03-12T06:33:53;27.87;;;12.50;;
38615;SDS011;24370;51.986;4.666;2023-03-12T06:36:18;26.67;;;13.53;;
38615;SDS011;24370;51.986;4.666;2023-03-12T06:38:44;23.97;;;14.20;;
38615;SDS011;24370;51.986;4.666;2023-03-12T06:41:11;21.10;;;13.90;;
38615;SDS011;24370;51.986;4.666;2023-03-12T06:43:38;27.43;;;13.37;;
38615;SDS011;24370;51.986;4.666;2023-03-12T06:46:04;25.80;;;14.57;;
38615;SDS011;24370;51.986;4.666;2023-03-12T06:48:31;23.57;;;13.40;;
38615;SDS011;24370;51.986;4.666;2023-03-12T06:51:00;24.23;;;14.13;;
38615;SDS011;24370;51.986;4.666;2023-03-12T06:53:29;21.70;;;13.97;;
38615;SDS011;24370;51.986;4.666;2023-03-12T06:55:55;25.27;;;14.13;;
38615;SDS011;24370;51.986;4.666;2023-03-12T06:58:20;26.40;;;14.73;;
38615;SDS011;24370;51.986;4.666;2023-03-12T07:00:45;26.70;;;15.07;;
38615;SDS011;24370;51.986;4.666;2023-03-12T07:03:11;30.37;;;15.33;;
38615;SDS011;24370;51.986;4.666;2023-03-12T07:05:36;30.30;;;14.40;;
38615;SDS011;24370;51.986;4.666;2023-03-12T07:08:02;29.67;;;15.80;;
38615;SDS011;24370;51.986;4.666;2023-03-12T07:10:27;26.03;;;15.87;;
38615;SDS011;24370;51.986;4.666;2023-03-12T07:12:54;28.40;;;16.57;;
38615;SDS011;24370;51.986;4.666;2023-03-12T07:15:20;31.83;;;16.87;;
38615;SDS011;24370;51.986;4.666;2023-03-12T07:17:45;29.87;;;17.27;;
38615;SDS011;24370;51.986;4.666;2023-03-12T07:20:11;28.43;;;16.80;;
38615;SDS011;24370;51.986;4.666;2023-03-12T07:22:37;29.87;;;17.17;;
38615;SDS011;24370;51.986;4.666;2023-03-12T07:25:02;37.77;;;18.87;;
38615;SDS011;24370;51.986;4.666;2023-03-12T07:27:28;34.53;;;18.13;;
38615;SDS011;24370;51.986;4.666;2023-03-12T07:29:54;32.77;;;17.73;;
38615;SDS011;24370;51.986;4.666;2023-03-12T07:32:19;34.50;;;19.53;;
38615;SDS011;24370;51.986;4.666;2023-03-12T07:34:44;32.17;;;18.40;;
38615;SDS011;24370;51.986;4.666;2023-03-12T07:37:10;34.63;;;18.77;;
38615;SDS011;24370;51.986;4.666;2023-03-12T07:39:35;36.10;;;18.83;;
38615;SDS011;24370;51.986;4.666;2023-03-12T07:42:01;37.13;;;19.60;;
38615;SDS011;24370;51.986;4.666;2023-03-12T07:44:26;41.10;;;20.63;;
38615;SDS011;24370;51.986;4.666;2023-03-12T07:46:52;42.53;;;22.17;;
38615;SDS011;24370;51.986;4.666;2023-03-12T07:49:17;42.30;;;21.60;;
38615;SDS011;24370;51.986;4.666;2023-03-12T07:51:43;38.53;;;19.50;;
38615;SDS011;24370;51.986;4.666;2023-03-12T07:54:09;37.93;;;21.47;;
38615;SDS011;24370;51.986;4.666;2023-03-12T07:56:34;39.30;;;20.07;;
38615;SDS011;24370;51.986;4.666;2023-03-12T07:59:00;41.73;;;19.07;;
38615;SDS011;24370;51.986;4.666;2023-03-12T08:01:25;37.80;;;19.50;;
38615;SDS011;24370;51.986;4.666;2023-03-12T08:03:56;37.87;;;19.10;;
38615;SDS011;24370;51.986;4.666;2023-03-12T08:06:22;39.53;;;19.67;;
38615;SDS011;24370;51.986;4.666;2023-03-12T08:08:48;41.23;;;20.57;;
38615;SDS011;24370;51.986;4.666;2023-03-12T08:11:14;36.80;;;19.33;;
38615;SDS011;24370;51.986;4.666;2023-03-12T08:13:40;38.90;;;20.50;;
38615;SDS011;24370;51.986;4.666;2023-03-12T08:16:05;35.70;;;19.67;;
38615;SDS011;24370;51.986;4.666;2023-03-12T08:18:30;39.90;;;20.07;;
38615;SDS011;24370;51.986;4.666;2023-03-12T08:20:56;42.23;;;21.60;;
38615;SDS011;24370;51.986;4.666;2023-03-12T08:23:21;42.10;;;21.33;;
38615;SDS011;24370;51.986;4.666;2023-03-12T08:25:47;44.57;;;21.03;;
38615;SDS011;24370;51.986;4.666;2023-03-12T08:28:14;45.00;;;22.40;;
38615;SDS011;24370;51.986;4.666;2023-03-12T08:30:44;55.30;;;22.93;;
38615;SDS011;24370;51.986;4.666;2023-03-12T08:33:13;51.05;;;24.77;;
38615;SDS011;24370;51.986;4.666;2023-03-12T08:35:38;46.40;;;25.60;;
38615;SDS011;24370;51.986;4.666;2023-03-12T08:38:03;58.27;;;25.77;;
38615;SDS011;24370;51.986;4.666;2023-03-12T08:40:29;57.33;;;26.07;;
38615;SDS011;24370;51.986;4.666;2023-03-12T08:42:54;55.47;;;27.07;;
38615;SDS011;24370;51.986;4.666;2023-03-12T08:45:20;61.13;;;27.50;;
38615;SDS011;24370;51.986;4.666;2023-03-12T08:47:45;58.60;;;27.93;;
38615;SDS011;24370;51.986;4.666;2023-03-12T08:50:11;70.60;;;29.27;;
38615;SDS011;24370;51.986;4.666;2023-03-12T08:52:38;67.97;;;28.23;;
38615;SDS011;24370;51.986;4.666;2023-03-12T08:55:04;62.43;;;28.67;;
38615;SDS011;24370;51.986;4.666;2023-03-12T08:57:30;65.47;;;29.23;;
38615;SDS011;24370;51.986;4.666;2023-03-12T08:59:56;65.40;;;28.73;;
38615;SDS011;24370;51.986;4.666;2023-03-12T09:02:21;83.93;;;31.17;;
38615;SDS011;24370;51.986;4.666;2023-03-12T09:04:47;69.87;;;31.43;;
38615;SDS011;24370;51.986;4.666;2023-03-12T09:07:13;72.87;;;31.67;;
38615;SDS011;24370;51.986;4.666;2023-03-12T09:09:38;73.27;;;31.57;;
38615;SDS011;24370;51.986;4.666;2023-03-12T09:12:04;66.00;;;27.07;;
38615;SDS011;24370;51.986;4.666;2023-03-12T09:14:29;62.13;;;29.13;;
38615;SDS011;24370;51.986;4.666;2023-03-12T09:16:55;65.20;;;28.13;;
38615;SDS011;24370;51.986;4.666;2023-03-12T09:19:21;67.47;;;29.57;;
38615;SDS011;24370;51.986;4.666;2023-03-12T09:21:46;52.63;;;26.73;;
38615;SDS011;24370;51.986;4.666;2023-03-12T09:24:12;57.80;;;26.17;;
38615;SDS011;24370;51.986;4.666;2023-03-12T09:26:37;54.20;;;26.63;;
38615;SDS011;24370;51.986;4.666;2023-03-12T09:29:02;55.33;;;25.10;;
38615;SDS011;24370;51.986;4.666;2023-03-12T09:31:28;50.33;;;23.87;;
38615;SDS011;24370;51.986;4.666;2023-03-12T09:33:53;52.43;;;22.27;;
38615;SDS011;24370;51.986;4.666;2023-03-12T09:36:19;52.77;;;21.30;;
38615;SDS011;24370;51.986;4.666;2023-03-12T09:38:44;47.77;;;21.50;;
38615;SDS011;24370;51.986;4.666;2023-03-12T09:41:14;47.33;;;21.23;;
38615;SDS011;24370;51.986;4.666;2023-03-12T09:44:08;46.10;;;19.83;;
38615;SDS011;24370;51.986;4.666;2023-03-12T09:47:24;45.37;;;19.10;;
38615;SDS011;24370;51.986;4.666;2023-03-12T09:52:02;40.13;;;16.67;;
38615;SDS011;24370;51.986;4.666;2023-03-12T09:54:42;43.07;;;15.57;;
38615;SDS011;24370;51.986;4.666;2023-03-12T09:57:11;41.67;;;15.53;;
38615;SDS011;24370;51.986;4.666;2023-03-12T09:59:41;57.27;;;13.57;;
38615;SDS011;24370;51.986;4.666;2023-03-12T10:04:57;31.00;;;9.93;;
38615;SDS011;24370;51.986;4.666;2023-03-12T10:07:31;40.43;;;8.73;;
38615;SDS011;24370;51.986;4.666;2023-03-12T10:24:03;39.47;;;6.60;;
38615;SDS011;24370;51.986;4.666;2023-03-12T10:29:17;36.15;;;7.30;;
38615;SDS011;24370;51.986;4.666;2023-03-12T10:34:29;41.47;;;7.53;;
38615;SDS011;24370;51.986;4.666;2023-03-12T10:40:04;29.37;;;5.67;;
38615;SDS011;24370;51.986;4.666;2023-03-12T10:42:31;49.13;;;6.63;;
38615;SDS011;24370;51.986;4.666;2023-03-12T10:45:13;35.30;;;6.10;;
38615;SDS011;24370;51.986;4.666;2023-03-12T10:47:50;55.33;;;9.90;;
38615;SDS011;24370;51.986;4.666;2023-03-12T10:53:14;37.70;;;7.03;;
38615;SDS011;24370;51.986;4.666;2023-03-12T10:55:42;37.15;;;6.78;;
38615;SDS011;24370;51.986;4.666;2023-03-12T10:58:21;40.03;;;6.20;;
38615;SDS011;24370;51.986;4.666;2023-03-12T11:00:55;35.23;;;5.13;;
38615;SDS011;24370;51.986;4.666;2023-03-12T11:03:22;32.60;;;6.97;;
38615;SDS011;24370;51.986;4.666;2023-03-12T11:05:52;32.17;;;6.67;;
38615;SDS011;24370;51.986;4.666;2023-03-12T11:08:27;46.60;;;5.85;;
38615;SDS011;24370;51.986;4.666;2023-03-12T11:10:58;37.47;;;6.17;;
38615;SDS011;24370;51.986;4.666;2023-03-12T11:13:31;29.40;;;5.10;;
38615;SDS011;24370;51.986;4.666;2023-03-12T11:16:01;28.63;;;6.33;;
38615;SDS011;24370;51.986;4.666;2023-03-12T11:18:55;33.07;;;6.00;;
38615;SDS011;24370;51.986;4.666;2023-03-12T11:21:23;40.13;;;6.00;;
38615;SDS011;24370;51.986;4.666;2023-03-12T11:26:22;41.27;;;6.40;;
38615;SDS011;24370;51.986;4.666;2023-03-12T11:28:50;34.53;;;5.63;;
38615;SDS011;24370;51.986;4.666;2023-03-12T11:31:27;45.60;;;5.90;;
38615;SDS011;24370;51.986;4.666;2023-03-12T11:33:59;28.50;;;5.10;;
38615;SDS011;24370;51.986;4.666;2023-03-12T11:39:19;32.73;;;4.83;;
38615;SDS011;24370;51.986;4.666;2023-03-12T11:44:32;35.07;;;5.10;;
38615;SDS011;24370;51.986;4.666;2023-03-12T11:47:23;31.33;;;4.70;;
38615;SDS011;24370;51.986;4.666;2023-03-12T11:55:55;30.63;;;5.10;;
38615;SDS011;24370;51.986;4.666;2023-03-12T12:01:08;39.60;;;5.53;;
38615;SDS011;24370;51.986;4.666;2023-03-12T12:03:52;43.37;;;6.80;;
38615;SDS011;24370;51.986;4.666;2023-03-12T12:06:28;36.60;;;4.90;;
38615;SDS011;24370;51.986;4.666;2023-03-12T12:17:20;31.20;;;4.93;;
38615;SDS011;24370;51.986;4.666;2023-03-12T12:20:12;35.30;;;6.03;;
38615;SDS011;24370;51.986;4.666;2023-03-12T12:36:20;36.63;;;5.07;;
38615;SDS011;24370;51.986;4.666;2023-03-12T12:38:50;27.40;;;4.80;;
38615;SDS011;24370;51.986;4.666;2023-03-12T12:41:20;35.90;;;5.13;;
38615;SDS011;24370;51.986;4.666;2023-03-12T12:46:39;37.03;;;5.07;;
38615;SDS011;24370;51.986;4.666;2023-03-12T12:49:07;36.20;;;6.40;;
38615;SDS011;24370;51.986;4.666;2023-03-12T12:51:38;34.70;;;6.40;;
38615;SDS011;24370;51.986;4.666;2023-03-12T12:54:22;34.23;;;5.60;;
38615;SDS011;24370;51.986;4.666;2023-03-12T12:59:33;39.37;;;4.83;;
38615;SDS011;24370;51.986;4.666;2023-03-12T13:02:18;28.77;;;5.30;;
38615;SDS011;24370;51.986;4.666;2023-03-12T13:04:46;41.93;;;5.37;;
38615;SDS011;24370;51.986;4.666;2023-03-12T13:09:47;32.97;;;4.63;;
38615;SDS011;24370;51.986;4.666;2023-03-12T13:12:20;42.60;;;4.80;;
38615;SDS011;24370;51.986;4.666;2023-03-12T13:14:49;35.83;;;5.60;;
38615;SDS011;24370;51.986;4.666;2023-03-12T13:17:23;37.23;;;6.27;;
38615;SDS011;24370;51.986;4.666;2023-03-12T13:28:37;33.67;;;5.13;;
38615;SDS011;24370;51.986;4.666;2023-03-12T13:33:57;32.50;;;4.97;;
38615;SDS011;24370;51.986;4.666;2023-03-12T13:36:35;33.87;;;5.30;;
38615;SDS011;24370;51.986;4.666;2023-03-12T13:41:36;30.37;;;5.10;;
38615;SDS011;24370;51.986;4.666;2023-03-12T13:55:15;24.05;;;4.70;;
38615;SDS011;24370;51.986;4.666;2023-03-12T13:57:50;32.87;;;5.13;;
38615;SDS011;24370;51.986;4.666;2023-03-12T14:00:30;33.40;;;4.47;;
38615;SDS011;24370;51.986;4.666;2023-03-12T14:03:15;28.70;;;4.23;;
38615;SDS011;24370;51.986;4.666;2023-03-12T14:11:06;44.20;;;5.85;;
38615;SDS011;24370;51.986;4.666;2023-03-12T14:14:16;49.23;;;5.97;;
38615;SDS011;24370;51.986;4.666;2023-03-12T14:16:55;32.60;;;5.63;;
38615;SDS011;24370;51.986;4.666;2023-03-12T14:19:31;45.43;;;5.87;;
38615;SDS011;24370;51.986;4.666;2023-03-12T14:21:59;47.53;;;7.00;;
38615;SDS011;24370;51.986;4.666;2023-03-12T14:24:33;41.90;;;6.60;;
38615;SDS011;24370;51.986;4.666;2023-03-12T14:27:03;30.20;;;4.83;;
38615;SDS011;24370;51.986;4.666;2023-03-12T14:29:34;40.90;;;5.80;;
38615;SDS011;24370;51.986;4.666;2023-03-12T14:32:02;31.20;;;5.53;;
38615;SDS011;24370;51.986;4.666;2023-03-12T14:34:31;36.80;;;4.67;;
38615;SDS011;24370;51.986;4.666;2023-03-12T14:37:04;27.05;;;5.25;;
38615;SDS011;24370;51.986;4.666;2023-03-12T14:42:23;41.70;;;7.13;;
38615;SDS011;24370;51.986;4.666;2023-03-12T14:44:55;34.13;;;5.40;;
38615;SDS011;24370;51.986;4.666;2023-03-12T14:48:09;27.45;;;5.78;;
38615;SDS011;24370;51.986;4.666;2023-03-12T14:50:29;25.80;;;4.82;;
38615;SDS011;24370;51.986;4.666;2023-03-12T14:53:12;32.93;;;5.23;;
38615;SDS011;24370;51.986;4.666;2023-03-12T14:55:42;35.17;;;5.70;;
38615;SDS011;24370;51.986;4.666;2023-03-12T14:58:15;34.47;;;5.43;;
38615;SDS011;24370;51.986;4.666;2023-03-12T15:00:42;38.33;;;5.67;;
38615;SDS011;24370;51.986;4.666;2023-03-12T15:03:13;29.70;;;5.20;;
38615;SDS011;24370;51.986;4.666;2023-03-12T15:05:47;30.67;;;4.50;;
38615;SDS011;24370;51.986;4.666;2023-03-12T15:08:14;40.63;;;5.53;;
38615;SDS011;24370;51.986;4.666;2023-03-12T15:10:46;30.80;;;4.57;;
38615;SDS011;24370;51.986;4.666;2023-03-12T15:13:16;39.67;;;5.47;;
38615;SDS011;24370;51.986;4.666;2023-03-12T15:15:46;39.63;;;5.47;;
38615;SDS011;24370;51.986;4.666;2023-03-12T15:18:17;49.53;;;6.00;;
38615;SDS011;24370;51.986;4.666;2023-03-12T15:20:47;46.33;;;5.40;;
38615;SDS011;24370;51.986;4.666;2023-03-12T15:23:14;45.40;;;6.47;;
38615;SDS011;24370;51.986;4.666;2023-03-12T15:25:42;35.63;;;5.00;;
38615;SDS011;24370;51.986;4.666;2023-03-12T15:30:40;35.07;;;6.57;;
38615;SDS011;24370;51.986;4.666;2023-03-12T15:35:42;35.67;;;5.73;;
38615;SDS011;24370;51.986;4.666;2023-03-12T15:38:26;43.97;;;5.43;;
38615;SDS011;24370;51.986;4.666;2023-03-12T15:40:52;39.23;;;5.97;;
38615;SDS011;24370;51.986;4.666;2023-03-12T15:43:22;38.47;;;6.67;;
38615;SDS011;24370;51.986;4.666;2023-03-12T15:45:59;31.03;;;5.87;;
38615;SDS011;24370;51.986;4.666;2023-03-12T15:48:36;33.80;;;5.83;;
38615;SDS011;24370;51.986;4.666;2023-03-12T15:51:11;44.13;;;5.23;;
38615;SDS011;24370;51.986;4.666;2023-03-12T15:53:38;32.53;;;4.87;;
38615;SDS011;24370;51.986;4.666;2023-03-12T15:58:36;27.50;;;5.83;;
38615;SDS011;24370;51.986;4.666;2023-03-12T16:01:16;33.40;;;5.57;;
38615;SDS011;24370;51.986;4.666;2023-03-12T16:03:47;40.90;;;5.77;;
38615;SDS011;24370;51.986;4.666;2023-03-12T16:06:14;27.30;;;5.70;;
38615;SDS011;24370;51.986;4.666;2023-03-12T16:08:43;30.43;;;4.90;;
38615;SDS011;24370;51.986;4.666;2023-03-12T16:11:14;39.07;;;5.63;;
38615;SDS011;24370;51.986;4.666;2023-03-12T16:13:41;37.83;;;5.70;;
38615;SDS011;24370;51.986;4.666;2023-03-12T16:16:10;35.83;;;6.10;;
38615;SDS011;24370;51.986;4.666;2023-03-12T16:18:37;34.90;;;5.93;;
38615;SDS011;24370;51.986;4.666;2023-03-12T16:21:02;47.13;;;6.30;;
38615;SDS011;24370;51.986;4.666;2023-03-12T16:23:28;48.27;;;6.10;;
38615;SDS011;24370;51.986;4.666;2023-03-12T16:25:54;62.90;;;7.27;;
38615;SDS011;24370;51.986;4.666;2023-03-12T16:28:20;58.53;;;7.23;;
38615;SDS011;24370;51.986;4.666;2023-03-12T16:30:47;40.50;;;7.00;;
38615;SDS011;24370;51.986;4.666;2023-03-12T16:33:14;47.80;;;6.43;;
38615;SDS011;24370;51.986;4.666;2023-03-12T16:35:41;40.07;;;5.73;;
38615;SDS011;24370;51.986;4.666;2023-03-12T16:38:06;46.93;;;5.60;;
38615;SDS011;24370;51.986;4.666;2023-03-12T16:40:34;43.20;;;5.47;;
38615;SDS011;24370;51.986;4.666;2023-03-12T16:43:01;34.00;;;4.67;;
38615;SDS011;24370;51.986;4.666;2023-03-12T16:45:30;39.30;;;5.53;;
38615;SDS011;24370;51.986;4.666;2023-03-12T16:47:58;31.43;;;4.13;;
38615;SDS011;24370;51.986;4.666;2023-03-12T16:50:26;30.57;;;4.60;;